sensor_id;sensor_type;location;lat;lon;timestamp;P1;durP1;ratioP1;P2;durP2;ratioP2
17993;SDS011;9122;48.406;9.984;2024-03-25T00:02:39;2.83;;;2.17;;
17993;SDS011;9122;48.406;9.984;2024-03-25T00:05:25;3.40;;;1.90;;
17993;SDS011;9122;48.406;9.984;2024-03-25T00:08:09;3.37;;;2.00;;
17993;SDS011;9122;48.406;9.984;2024-03-25T00:10:54;2.60;;;2.00;;
17993;SDS011;9122;48.406;9.984;2024-03-25T00:13:39;2.40;;;2.20;;
17993;SDS011;9122;48.406;9.984;2024-03-25T00:16:23;3.47;;;2.03;;
17993;SDS011;9122;48.406;9.984;2024-03-25T00:19:08;2.67;;;2.27;;
17993;SDS011;9122;48.406;9.984;2024-03-25T00:21:52;2.60;;;2.13;;
17993;SDS011;9122;48.406;9.984;2024-03-25T00:24:36;2.63;;;2.43;;
17993;SDS011;9122;48.406;9.984;2024-03-25T00:27:20;2.40;;;2.20;;
17993;SDS011;9122;48.406;9.984;2024-03-25T00:30:05;2.77;;;1.80;;
17993;SDS011;9122;48.406;9.984;2024-03-25T00:32:50;3.40;;;2.53;;
17993;SDS011;9122;48.406;9.984;2024-03-25T00:35:34;1.97;;;1.87;;
17993;SDS011;9122;48.406;9.984;2024-03-25T00:38:21;2.90;;;2.53;;
17993;SDS011;9122;48.406;9.984;2024-03-25T00:41:05;2.43;;;2.20;;
17993;SDS011;9122;48.406;9.984;2024-03-25T00:43:50;2.53;;;1.77;;
17993;SDS011;9122;48.406;9.984;2024-03-25T00:46:34;2.10;;;1.90;;
17993;SDS011;9122;48.406;9.984;2024-03-25T00:49:19;2.63;;;2.13;;
17993;SDS011;9122;48.406;9.984;2024-03-25T00:52:05;3.47;;;2.13;;
17993;SDS011;9122;48.406;9.984;2024-03-25T00:54:49;2.23;;;2.03;;
17993;SDS011;9122;48.406;9.984;2024-03-25T00:57:34;3.00;;;2.17;;
17993;SDS011;9122;48.406;9.984;2024-03-25T01:00:18;2.23;;;2.03;;
17993;SDS011;9122;48.406;9.984;2024-03-25T01:03:03;2.53;;;2.33;;
17993;SDS011;9122;48.406;9.984;2024-03-25T01:05:48;2.47;;;2.17;;
17993;SDS011;9122;48.406;9.984;2024-03-25T01:08:33;3.30;;;3.00;;
17993;SDS011;9122;48.406;9.984;2024-03-25T01:11:18;2.50;;;2.30;;
17993;SDS011;9122;48.406;9.984;2024-03-25T01:14:02;4.10;;;2.73;;
17993;SDS011;9122;48.406;9.984;2024-03-25T01:16:46;3.90;;;2.87;;
17993;SDS011;9122;48.406;9.984;2024-03-25T01:19:31;6.63;;;3.30;;
17993;SDS011;9122;48.406;9.984;2024-03-25T01:22:15;2.97;;;2.37;;
17993;SDS011;9122;48.406;9.984;2024-03-25T01:24:59;4.70;;;2.90;;
17993;SDS011;9122;48.406;9.984;2024-03-25T01:27:43;3.80;;;2.43;;
17993;SDS011;9122;48.406;9.984;2024-03-25T01:30:27;5.80;;;3.37;;
17993;SDS011;9122;48.406;9.984;2024-03-25T01:33:13;3.83;;;2.97;;
17993;SDS011;9122;48.406;9.984;2024-03-25T01:35:58;4.07;;;2.73;;
17993;SDS011;9122;48.406;9.984;2024-03-25T01:38:43;6.27;;;3.00;;
17993;SDS011;9122;48.406;9.984;2024-03-25T01:41:28;3.23;;;2.60;;
17993;SDS011;9122;48.406;9.984;2024-03-25T01:44:13;3.90;;;2.90;;
17993;SDS011;9122;48.406;9.984;2024-03-25T01:46:57;6.03;;;3.23;;
17993;SDS011;9122;48.406;9.984;2024-03-25T01:49:41;4.37;;;2.87;;
17993;SDS011;9122;48.406;9.984;2024-03-25T01:52:26;5.03;;;2.67;;
17993;SDS011;9122;48.406;9.984;2024-03-25T01:55:12;4.10;;;2.73;;
17993;SDS011;9122;48.406;9.984;2024-03-25T01:58:01;3.97;;;3.00;;
17993;SDS011;9122;48.406;9.984;2024-03-25T02:00:46;3.57;;;2.57;;
17993;SDS011;9122;48.406;9.984;2024-03-25T02:03:30;5.30;;;3.40;;
17993;SDS011;9122;48.406;9.984;2024-03-25T02:06:15;4.93;;;2.43;;
17993;SDS011;9122;48.406;9.984;2024-03-25T02:09:03;3.97;;;2.70;;
17993;SDS011;9122;48.406;9.984;2024-03-25T02:11:49;2.93;;;2.57;;
17993;SDS011;9122;48.406;9.984;2024-03-25T02:14:34;4.33;;;2.57;;
17993;SDS011;9122;48.406;9.984;2024-03-25T02:17:18;3.67;;;2.97;;
17993;SDS011;9122;48.406;9.984;2024-03-25T02:20:03;5.20;;;3.00;;
17993;SDS011;9122;48.406;9.984;2024-03-25T02:22:54;2.73;;;2.53;;
17993;SDS011;9122;48.406;9.984;2024-03-25T02:25:40;2.50;;;2.30;;
17993;SDS011;9122;48.406;9.984;2024-03-25T02:28:26;2.43;;;2.13;;
17993;SDS011;9122;48.406;9.984;2024-03-25T02:31:10;3.60;;;2.27;;
17993;SDS011;9122;48.406;9.984;2024-03-25T02:33:54;2.53;;;2.33;;
17993;SDS011;9122;48.406;9.984;2024-03-25T02:36:38;2.80;;;2.43;;
17993;SDS011;9122;48.406;9.984;2024-03-25T02:39:23;3.90;;;2.40;;
17993;SDS011;9122;48.406;9.984;2024-03-25T02:42:08;2.93;;;2.60;;
17993;SDS011;9122;48.406;9.984;2024-03-25T02:44:55;3.90;;;2.63;;
17993;SDS011;9122;48.406;9.984;2024-03-25T02:47:41;2.57;;;2.37;;
17993;SDS011;9122;48.406;9.984;2024-03-25T02:50:27;3.23;;;2.50;;
17993;SDS011;9122;48.406;9.984;2024-03-25T02:53:11;2.97;;;2.67;;
17993;SDS011;9122;48.406;9.984;2024-03-25T02:55:56;2.90;;;2.70;;
17993;SDS011;9122;48.406;9.984;2024-03-25T02:58:40;5.73;;;3.20;;
17993;SDS011;9122;48.406;9.984;2024-03-25T03:01:24;3.87;;;3.20;;
17993;SDS011;9122;48.406;9.984;2024-03-25T03:04:07;4.80;;;3.50;;
17993;SDS011;9122;48.406;9.984;2024-03-25T03:06:51;5.93;;;3.23;;
17993;SDS011;9122;48.406;9.984;2024-03-25T03:09:36;3.47;;;3.00;;
17993;SDS011;9122;48.406;9.984;2024-03-25T03:12:21;4.47;;;3.37;;
17993;SDS011;9122;48.406;9.984;2024-03-25T03:15:06;5.43;;;3.80;;
17993;SDS011;9122;48.406;9.984;2024-03-25T03:17:50;4.63;;;3.57;;
17993;SDS011;9122;48.406;9.984;2024-03-25T03:20:34;5.83;;;3.57;;
17993;SDS011;9122;48.406;9.984;2024-03-25T03:23:19;6.93;;;3.97;;
17993;SDS011;9122;48.406;9.984;2024-03-25T03:26:03;11.13;;;4.57;;
17993;SDS011;9122;48.406;9.984;2024-03-25T03:28:47;11.43;;;5.23;;
17993;SDS011;9122;48.406;9.984;2024-03-25T03:31:32;7.57;;;4.47;;
17993;SDS011;9122;48.406;9.984;2024-03-25T03:34:17;3.83;;;3.53;;
17993;SDS011;9122;48.406;9.984;2024-03-25T03:37:02;6.60;;;3.30;;
17993;SDS011;9122;48.406;9.984;2024-03-25T03:39:46;4.17;;;2.97;;
17993;SDS011;9122;48.406;9.984;2024-03-25T03:42:32;3.37;;;3.07;;
17993;SDS011;9122;48.406;9.984;2024-03-25T03:45:16;3.77;;;3.20;;
17993;SDS011;9122;48.406;9.984;2024-03-25T03:48:01;5.20;;;3.00;;
17993;SDS011;9122;48.406;9.984;2024-03-25T03:50:45;3.47;;;3.17;;
17993;SDS011;9122;48.406;9.984;2024-03-25T03:53:30;3.77;;;3.47;;
17993;SDS011;9122;48.406;9.984;2024-03-25T03:56:15;5.23;;;3.70;;
17993;SDS011;9122;48.406;9.984;2024-03-25T03:59:00;6.47;;;3.70;;
17993;SDS011;9122;48.406;9.984;2024-03-25T04:01:44;5.87;;;4.17;;
17993;SDS011;9122;48.406;9.984;2024-03-25T04:04:28;4.97;;;3.77;;
17993;SDS011;9122;48.406;9.984;2024-03-25T04:07:12;4.83;;;4.47;;
17993;SDS011;9122;48.406;9.984;2024-03-25T04:09:57;5.83;;;5.30;;
17993;SDS011;9122;48.406;9.984;2024-03-25T04:12:41;9.63;;;5.90;;
17993;SDS011;9122;48.406;9.984;2024-03-25T04:15:25;6.70;;;6.00;;
17993;SDS011;9122;48.406;9.984;2024-03-25T04:18:10;6.63;;;6.03;;
17993;SDS011;9122;48.406;9.984;2024-03-25T04:20:54;7.70;;;6.63;;
17993;SDS011;9122;48.406;9.984;2024-03-25T04:23:39;7.77;;;6.80;;
17993;SDS011;9122;48.406;9.984;2024-03-25T04:26:24;8.00;;;7.30;;
17993;SDS011;9122;48.406;9.984;2024-03-25T04:29:08;8.10;;;7.40;;
17993;SDS011;9122;48.406;9.984;2024-03-25T04:31:52;6.90;;;6.30;;
17993;SDS011;9122;48.406;9.984;2024-03-25T04:34:37;9.23;;;7.13;;
17993;SDS011;9122;48.406;9.984;2024-03-25T04:37:21;9.60;;;7.30;;
17993;SDS011;9122;48.406;9.984;2024-03-25T04:40:05;8.23;;;7.43;;
17993;SDS011;9122;48.406;9.984;2024-03-25T04:42:51;11.60;;;8.60;;
17993;SDS011;9122;48.406;9.984;2024-03-25T04:45:36;8.40;;;7.60;;
17993;SDS011;9122;48.406;9.984;2024-03-25T04:48:20;8.67;;;7.77;;
17993;SDS011;9122;48.406;9.984;2024-03-25T04:51:05;10.07;;;8.43;;
17993;SDS011;9122;48.406;9.984;2024-03-25T04:53:50;8.27;;;7.40;;
17993;SDS011;9122;48.406;9.984;2024-03-25T04:56:34;9.50;;;7.83;;
17993;SDS011;9122;48.406;9.984;2024-03-25T04:59:18;8.10;;;7.40;;
17993;SDS011;9122;48.406;9.984;2024-03-25T05:02:02;8.23;;;7.30;;
17993;SDS011;9122;48.406;9.984;2024-03-25T05:04:46;13.33;;;7.30;;
17993;SDS011;9122;48.406;9.984;2024-03-25T05:07:31;12.30;;;7.80;;
17993;SDS011;9122;48.406;9.984;2024-03-25T05:10:15;6.83;;;6.13;;
17993;SDS011;9122;48.406;9.984;2024-03-25T05:13:00;7.23;;;6.53;;
17993;SDS011;9122;48.406;9.984;2024-03-25T05:15:51;6.50;;;5.97;;
17993;SDS011;9122;48.406;9.984;2024-03-25T05:18:36;7.47;;;6.77;;
17993;SDS011;9122;48.406;9.984;2024-03-25T05:21:20;11.07;;;6.70;;
17993;SDS011;9122;48.406;9.984;2024-03-25T05:24:04;7.33;;;6.10;;
17993;SDS011;9122;48.406;9.984;2024-03-25T05:26:49;6.70;;;5.73;;
17993;SDS011;9122;48.406;9.984;2024-03-25T05:29:33;7.63;;;5.77;;
17993;SDS011;9122;48.406;9.984;2024-03-25T05:32:18;7.40;;;5.13;;
17993;SDS011;9122;48.406;9.984;2024-03-25T05:35:05;6.90;;;4.40;;
17993;SDS011;9122;48.406;9.984;2024-03-25T05:37:50;5.93;;;5.00;;
17993;SDS011;9122;48.406;9.984;2024-03-25T05:40:35;7.73;;;5.40;;
17993;SDS011;9122;48.406;9.984;2024-03-25T05:43:20;5.53;;;5.03;;
17993;SDS011;9122;48.406;9.984;2024-03-25T05:46:05;6.33;;;4.60;;
17993;SDS011;9122;48.406;9.984;2024-03-25T05:48:48;5.37;;;4.60;;
17993;SDS011;9122;48.406;9.984;2024-03-25T05:51:33;8.17;;;4.97;;
17993;SDS011;9122;48.406;9.984;2024-03-25T05:54:18;7.43;;;5.27;;
17993;SDS011;9122;48.406;9.984;2024-03-25T05:57:02;6.47;;;5.53;;
17993;SDS011;9122;48.406;9.984;2024-03-25T05:59:47;5.43;;;4.93;;
17993;SDS011;9122;48.406;9.984;2024-03-25T06:02:32;6.47;;;5.50;;
17993;SDS011;9122;48.406;9.984;2024-03-25T06:05:16;9.57;;;6.07;;
17993;SDS011;9122;48.406;9.984;2024-03-25T06:08:00;8.30;;;5.83;;
17993;SDS011;9122;48.406;9.984;2024-03-25T06:10:45;6.40;;;4.87;;
17993;SDS011;9122;48.406;9.984;2024-03-25T06:13:29;7.37;;;6.63;;
17993;SDS011;9122;48.406;9.984;2024-03-25T06:16:14;9.27;;;6.53;;
17993;SDS011;9122;48.406;9.984;2024-03-25T06:18:58;10.63;;;7.17;;
17993;SDS011;9122;48.406;9.984;2024-03-25T06:21:42;7.13;;;6.40;;
17993;SDS011;9122;48.406;9.984;2024-03-25T06:24:27;9.33;;;7.47;;
17993;SDS011;9122;48.406;9.984;2024-03-25T06:27:11;10.67;;;8.33;;
17993;SDS011;9122;48.406;9.984;2024-03-25T06:29:55;9.00;;;8.20;;
17993;SDS011;9122;48.406;9.984;2024-03-25T06:32:59;12.17;;;8.27;;
17993;SDS011;9122;48.406;9.984;2024-03-25T06:36:02;11.50;;;9.67;;
17993;SDS011;9122;48.406;9.984;2024-03-25T06:38:47;13.50;;;9.53;;
17993;SDS011;9122;48.406;9.984;2024-03-25T06:41:31;13.03;;;10.50;;
17993;SDS011;9122;48.406;9.984;2024-03-25T06:44:15;10.33;;;8.93;;
17993;SDS011;9122;48.406;9.984;2024-03-25T06:47:01;9.83;;;8.47;;
17993;SDS011;9122;48.406;9.984;2024-03-25T06:49:45;10.43;;;8.27;;
17993;SDS011;9122;48.406;9.984;2024-03-25T06:52:30;8.13;;;7.17;;
17993;SDS011;9122;48.406;9.984;2024-03-25T06:55:14;9.60;;;8.70;;
17993;SDS011;9122;48.406;9.984;2024-03-25T06:57:59;12.57;;;11.07;;
17993;SDS011;9122;48.406;9.984;2024-03-25T07:00:43;13.40;;;12.00;;
17993;SDS011;9122;48.406;9.984;2024-03-25T07:03:27;12.90;;;11.50;;
17993;SDS011;9122;48.406;9.984;2024-03-25T07:06:12;12.33;;;10.30;;
17993;SDS011;9122;48.406;9.984;2024-03-25T07:08:56;13.97;;;10.93;;
17993;SDS011;9122;48.406;9.984;2024-03-25T07:11:40;12.03;;;10.83;;
17993;SDS011;9122;48.406;9.984;2024-03-25T07:14:29;9.70;;;8.80;;
17993;SDS011;9122;48.406;9.984;2024-03-25T07:17:14;10.60;;;9.17;;
17993;SDS011;9122;48.406;9.984;2024-03-25T07:19:58;9.90;;;8.93;;
17993;SDS011;9122;48.406;9.984;2024-03-25T07:22:43;10.03;;;9.07;;
17993;SDS011;9122;48.406;9.984;2024-03-25T07:25:30;11.17;;;10.07;;
17993;SDS011;9122;48.406;9.984;2024-03-25T07:28:14;9.10;;;8.27;;
17993;SDS011;9122;48.406;9.984;2024-03-25T07:30:59;7.23;;;6.57;;
17993;SDS011;9122;48.406;9.984;2024-03-25T07:33:44;7.10;;;6.43;;
17993;SDS011;9122;48.406;9.984;2024-03-25T07:36:28;7.37;;;6.73;;
17993;SDS011;9122;48.406;9.984;2024-03-25T07:39:17;8.30;;;7.60;;
17993;SDS011;9122;48.406;9.984;2024-03-25T07:42:04;7.70;;;6.90;;
17993;SDS011;9122;48.406;9.984;2024-03-25T07:44:50;8.63;;;7.90;;
17993;SDS011;9122;48.406;9.984;2024-03-25T07:47:35;7.87;;;7.07;;
17993;SDS011;9122;48.406;9.984;2024-03-25T07:50:19;10.83;;;7.77;;
17993;SDS011;9122;48.406;9.984;2024-03-25T07:53:04;7.30;;;6.60;;
17993;SDS011;9122;48.406;9.984;2024-03-25T07:55:48;6.63;;;6.03;;
17993;SDS011;9122;48.406;9.984;2024-03-25T07:58:34;6.43;;;5.83;;
17993;SDS011;9122;48.406;9.984;2024-03-25T08:01:19;6.43;;;5.83;;
17993;SDS011;9122;48.406;9.984;2024-03-25T08:04:04;5.93;;;5.43;;
17993;SDS011;9122;48.406;9.984;2024-03-25T08:06:48;5.20;;;4.77;;
17993;SDS011;9122;48.406;9.984;2024-03-25T08:09:33;5.53;;;5.03;;
17993;SDS011;9122;48.406;9.984;2024-03-25T08:12:17;4.67;;;4.27;;
17993;SDS011;9122;48.406;9.984;2024-03-25T08:15:01;4.83;;;4.33;;
17993;SDS011;9122;48.406;9.984;2024-03-25T08:17:46;5.33;;;5.00;;
17993;SDS011;9122;48.406;9.984;2024-03-25T08:20:31;6.67;;;6.10;;
17993;SDS011;9122;48.406;9.984;2024-03-25T08:23:16;5.23;;;4.73;;
17993;SDS011;9122;48.406;9.984;2024-03-25T08:26:00;5.10;;;4.37;;
17993;SDS011;9122;48.406;9.984;2024-03-25T08:28:46;4.50;;;4.10;;
17993;SDS011;9122;48.406;9.984;2024-03-25T08:31:32;4.37;;;3.97;;
17993;SDS011;9122;48.406;9.984;2024-03-25T08:34:17;4.73;;;4.33;;
17993;SDS011;9122;48.406;9.984;2024-03-25T08:37:02;5.70;;;5.00;;
17993;SDS011;9122;48.406;9.984;2024-03-25T08:39:48;4.47;;;4.07;;
17993;SDS011;9122;48.406;9.984;2024-03-25T08:42:32;4.30;;;3.90;;
17993;SDS011;9122;48.406;9.984;2024-03-25T08:45:16;3.33;;;3.03;;
17993;SDS011;9122;48.406;9.984;2024-03-25T08:48:00;3.63;;;2.83;;
17993;SDS011;9122;48.406;9.984;2024-03-25T08:50:45;3.10;;;2.87;;
17993;SDS011;9122;48.406;9.984;2024-03-25T08:53:29;3.50;;;3.20;;
17993;SDS011;9122;48.406;9.984;2024-03-25T08:56:13;5.20;;;4.70;;
17993;SDS011;9122;48.406;9.984;2024-03-25T08:58:57;6.80;;;4.47;;
17993;SDS011;9122;48.406;9.984;2024-03-25T09:01:42;3.87;;;3.60;;
17993;SDS011;9122;48.406;9.984;2024-03-25T09:04:26;4.67;;;3.70;;
17993;SDS011;9122;48.406;9.984;2024-03-25T09:07:10;4.00;;;3.70;;
17993;SDS011;9122;48.406;9.984;2024-03-25T09:09:54;2.97;;;2.77;;
17993;SDS011;9122;48.406;9.984;2024-03-25T09:12:57;2.90;;;2.70;;
17993;SDS011;9122;48.406;9.984;2024-03-25T09:15:45;2.80;;;2.60;;
17993;SDS011;9122;48.406;9.984;2024-03-25T09:18:29;3.20;;;3.00;;
17993;SDS011;9122;48.406;9.984;2024-03-25T09:21:13;3.20;;;3.00;;
17993;SDS011;9122;48.406;9.984;2024-03-25T09:23:58;4.47;;;4.07;;
17993;SDS011;9122;48.406;9.984;2024-03-25T09:26:44;4.40;;;4.10;;
17993;SDS011;9122;48.406;9.984;2024-03-25T09:29:30;3.57;;;3.37;;
17993;SDS011;9122;48.406;9.984;2024-03-25T09:32:15;3.80;;;3.47;;
17993;SDS011;9122;48.406;9.984;2024-03-25T09:34:59;3.27;;;2.97;;
17993;SDS011;9122;48.406;9.984;2024-03-25T09:37:43;4.30;;;4.00;;
17993;SDS011;9122;48.406;9.984;2024-03-25T09:40:27;3.90;;;3.60;;
17993;SDS011;9122;48.406;9.984;2024-03-25T09:43:13;3.77;;;3.47;;
17993;SDS011;9122;48.406;9.984;2024-03-25T09:46:09;3.80;;;3.43;;
17993;SDS011;9122;48.406;9.984;2024-03-25T09:48:53;3.93;;;3.63;;
17993;SDS011;9122;48.406;9.984;2024-03-25T09:51:38;3.77;;;3.43;;
17993;SDS011;9122;48.406;9.984;2024-03-25T09:54:23;3.60;;;3.33;;
17993;SDS011;9122;48.406;9.984;2024-03-25T09:57:07;4.53;;;3.20;;
17993;SDS011;9122;48.406;9.984;2024-03-25T09:59:52;4.07;;;3.30;;
17993;SDS011;9122;48.406;9.984;2024-03-25T10:02:38;3.80;;;3.50;;
17993;SDS011;9122;48.406;9.984;2024-03-25T10:05:24;3.27;;;3.07;;
17993;SDS011;9122;48.406;9.984;2024-03-25T10:08:09;3.57;;;3.27;;
17993;SDS011;9122;48.406;9.984;2024-03-25T10:10:54;4.60;;;3.23;;
17993;SDS011;9122;48.406;9.984;2024-03-25T10:13:40;4.10;;;3.37;;
17993;SDS011;9122;48.406;9.984;2024-03-25T10:16:25;2.93;;;2.73;;
17993;SDS011;9122;48.406;9.984;2024-03-25T10:19:09;3.20;;;2.93;;
17993;SDS011;9122;48.406;9.984;2024-03-25T10:22:27;2.87;;;2.67;;
17993;SDS011;9122;48.406;9.984;2024-03-25T10:25:05;2.50;;;2.10;;
17993;SDS011;9122;48.406;9.984;2024-03-25T10:28:01;2.90;;;2.60;;
17993;SDS011;9122;48.406;9.984;2024-03-25T10:30:46;2.70;;;2.50;;
17993;SDS011;9122;48.406;9.984;2024-03-25T10:33:30;3.30;;;2.70;;
17993;SDS011;9122;48.406;9.984;2024-03-25T10:36:14;2.40;;;2.20;;
17993;SDS011;9122;48.406;9.984;2024-03-25T10:39:00;4.63;;;2.20;;
17993;SDS011;9122;48.406;9.984;2024-03-25T10:41:46;1.97;;;1.87;;
17993;SDS011;9122;48.406;9.984;2024-03-25T10:44:32;2.13;;;1.60;;
17993;SDS011;9122;48.406;9.984;2024-03-25T10:47:19;2.27;;;2.07;;
17993;SDS011;9122;48.406;9.984;2024-03-25T10:50:07;2.33;;;2.07;;
17993;SDS011;9122;48.406;9.984;2024-03-25T10:52:57;1.90;;;1.80;;
17993;SDS011;9122;48.406;9.984;2024-03-25T10:55:45;1.80;;;1.70;;
17993;SDS011;9122;48.406;9.984;2024-03-25T10:58:31;4.33;;;1.70;;
17993;SDS011;9122;48.406;9.984;2024-03-25T11:01:17;2.33;;;1.53;;
17993;SDS011;9122;48.406;9.984;2024-03-25T11:04:02;1.70;;;1.60;;
17993;SDS011;9122;48.406;9.984;2024-03-25T11:06:49;1.87;;;1.77;;
17993;SDS011;9122;48.406;9.984;2024-03-25T11:09:33;1.50;;;1.40;;
17993;SDS011;9122;48.406;9.984;2024-03-25T11:12:17;1.60;;;1.50;;
17993;SDS011;9122;48.406;9.984;2024-03-25T11:15:02;2.27;;;1.70;;
17993;SDS011;9122;48.406;9.984;2024-03-25T11:17:48;1.70;;;1.60;;
17993;SDS011;9122;48.406;9.984;2024-03-25T11:20:33;1.80;;;1.70;;
17993;SDS011;9122;48.406;9.984;2024-03-25T11:23:17;2.13;;;2.00;;
17993;SDS011;9122;48.406;9.984;2024-03-25T11:26:02;2.40;;;2.17;;
17993;SDS011;9122;48.406;9.984;2024-03-25T11:28:46;2.10;;;1.90;;
17993;SDS011;9122;48.406;9.984;2024-03-25T11:31:30;1.93;;;1.83;;
17993;SDS011;9122;48.406;9.984;2024-03-25T11:34:17;2.27;;;2.07;;
17993;SDS011;9122;48.406;9.984;2024-03-25T11:37:01;1.80;;;1.70;;
17993;SDS011;9122;48.406;9.984;2024-03-25T11:39:46;1.90;;;1.80;;
17993;SDS011;9122;48.406;9.984;2024-03-25T11:42:30;3.90;;;1.73;;
17993;SDS011;9122;48.406;9.984;2024-03-25T11:48:01;1.47;;;1.37;;
17993;SDS011;9122;48.406;9.984;2024-03-25T11:50:46;1.27;;;1.17;;
17993;SDS011;9122;48.406;9.984;2024-03-25T11:53:31;1.50;;;1.43;;
17993;SDS011;9122;48.406;9.984;2024-03-25T11:56:15;1.70;;;1.60;;
17993;SDS011;9122;48.406;9.984;2024-03-25T11:58:59;1.70;;;1.57;;
17993;SDS011;9122;48.406;9.984;2024-03-25T12:01:44;1.70;;;1.60;;
17993;SDS011;9122;48.406;9.984;2024-03-25T12:04:29;1.60;;;1.50;;
17993;SDS011;9122;48.406;9.984;2024-03-25T12:07:14;2.30;;;1.50;;
17993;SDS011;9122;48.406;9.984;2024-03-25T12:09:59;1.80;;;1.70;;
17993;SDS011;9122;48.406;9.984;2024-03-25T12:13:02;0.83;;;0.80;;
17993;SDS011;9122;48.406;9.984;2024-03-25T12:15:47;0.60;;;0.60;;
17993;SDS011;9122;48.406;9.984;2024-03-25T12:18:32;1.30;;;1.10;;
17993;SDS011;9122;48.406;9.984;2024-03-25T12:21:17;1.03;;;0.93;;
17993;SDS011;9122;48.406;9.984;2024-03-25T12:24:02;0.87;;;0.80;;
17993;SDS011;9122;48.406;9.984;2024-03-25T12:26:46;1.00;;;1.00;;
17993;SDS011;9122;48.406;9.984;2024-03-25T12:29:30;5.53;;;1.57;;
17993;SDS011;9122;48.406;9.984;2024-03-25T12:32:15;1.20;;;1.10;;
17993;SDS011;9122;48.406;9.984;2024-03-25T12:35:00;1.67;;;1.30;;
17993;SDS011;9122;48.406;9.984;2024-03-25T12:37:46;1.03;;;1.03;;
17993;SDS011;9122;48.406;9.984;2024-03-25T12:40:31;1.13;;;1.00;;
17993;SDS011;9122;48.406;9.984;2024-03-25T12:43:16;1.67;;;1.23;;
17993;SDS011;9122;48.406;9.984;2024-03-25T12:46:00;1.47;;;1.37;;
17993;SDS011;9122;48.406;9.984;2024-03-25T12:48:47;1.67;;;1.57;;
17993;SDS011;9122;48.406;9.984;2024-03-25T12:51:31;1.67;;;1.57;;
17993;SDS011;9122;48.406;9.984;2024-03-25T12:54:16;1.50;;;1.40;;
17993;SDS011;9122;48.406;9.984;2024-03-25T12:57:01;1.43;;;1.30;;
17993;SDS011;9122;48.406;9.984;2024-03-25T12:59:45;1.77;;;1.67;;
17993;SDS011;9122;48.406;9.984;2024-03-25T13:02:30;2.30;;;1.73;;
17993;SDS011;9122;48.406;9.984;2024-03-25T13:05:15;2.17;;;1.97;;
17993;SDS011;9122;48.406;9.984;2024-03-25T13:08:01;2.33;;;2.13;;
17993;SDS011;9122;48.406;9.984;2024-03-25T13:10:45;2.37;;;2.10;;
17993;SDS011;9122;48.406;9.984;2024-03-25T13:13:30;2.40;;;1.60;;
17993;SDS011;9122;48.406;9.984;2024-03-25T13:16:14;2.03;;;1.77;;
17993;SDS011;9122;48.406;9.984;2024-03-25T13:18:58;2.07;;;1.97;;
17993;SDS011;9122;48.406;9.984;2024-03-25T13:21:42;2.00;;;1.90;;
17993;SDS011;9122;48.406;9.984;2024-03-25T13:24:27;2.20;;;1.73;;
17993;SDS011;9122;48.406;9.984;2024-03-25T13:27:11;3.47;;;2.37;;
17993;SDS011;9122;48.406;9.984;2024-03-25T13:29:55;1.87;;;1.77;;
17993;SDS011;9122;48.406;9.984;2024-03-25T13:32:40;3.07;;;2.30;;
17993;SDS011;9122;48.406;9.984;2024-03-25T13:35:24;2.40;;;2.20;;
17993;SDS011;9122;48.406;9.984;2024-03-25T13:38:09;2.13;;;2.00;;
17993;SDS011;9122;48.406;9.984;2024-03-25T13:40:53;2.23;;;2.03;;
17993;SDS011;9122;48.406;9.984;2024-03-25T13:43:44;1.87;;;1.77;;
17993;SDS011;9122;48.406;9.984;2024-03-25T13:46:29;2.00;;;1.90;;
17993;SDS011;9122;48.406;9.984;2024-03-25T13:49:13;2.20;;;2.10;;
17993;SDS011;9122;48.406;9.984;2024-03-25T13:51:59;1.97;;;1.80;;
17993;SDS011;9122;48.406;9.984;2024-03-25T13:54:43;3.20;;;2.20;;
17993;SDS011;9122;48.406;9.984;2024-03-25T13:57:27;2.93;;;1.97;;
17993;SDS011;9122;48.406;9.984;2024-03-25T14:00:11;3.47;;;1.70;;
17993;SDS011;9122;48.406;9.984;2024-03-25T14:02:57;1.77;;;1.67;;
17993;SDS011;9122;48.406;9.984;2024-03-25T14:05:41;2.17;;;1.80;;
17993;SDS011;9122;48.406;9.984;2024-03-25T14:08:25;1.67;;;1.57;;
17993;SDS011;9122;48.406;9.984;2024-03-25T14:11:10;1.60;;;1.50;;
17993;SDS011;9122;48.406;9.984;2024-03-25T14:13:56;1.70;;;1.60;;
17993;SDS011;9122;48.406;9.984;2024-03-25T14:16:40;1.33;;;1.30;;
17993;SDS011;9122;48.406;9.984;2024-03-25T14:19:24;1.80;;;1.70;;
17993;SDS011;9122;48.406;9.984;2024-03-25T14:22:09;1.90;;;1.80;;
17993;SDS011;9122;48.406;9.984;2024-03-25T14:24:53;2.60;;;1.67;;
17993;SDS011;9122;48.406;9.984;2024-03-25T14:27:41;1.57;;;1.47;;
17993;SDS011;9122;48.406;9.984;2024-03-25T14:30:25;1.50;;;1.30;;
17993;SDS011;9122;48.406;9.984;2024-03-25T14:33:10;1.67;;;1.57;;
17993;SDS011;9122;48.406;9.984;2024-03-25T14:35:54;1.63;;;1.50;;
17993;SDS011;9122;48.406;9.984;2024-03-25T14:38:39;1.60;;;1.50;;
17993;SDS011;9122;48.406;9.984;2024-03-25T14:41:23;1.40;;;1.30;;
17993;SDS011;9122;48.406;9.984;2024-03-25T14:44:08;2.90;;;1.40;;
17993;SDS011;9122;48.406;9.984;2024-03-25T14:46:54;1.40;;;1.30;;
17993;SDS011;9122;48.406;9.984;2024-03-25T14:49:38;1.87;;;1.43;;
17993;SDS011;9122;48.406;9.984;2024-03-25T14:52:22;2.10;;;1.27;;
17993;SDS011;9122;48.406;9.984;2024-03-25T14:55:06;1.33;;;1.33;;
17993;SDS011;9122;48.406;9.984;2024-03-25T14:57:54;1.37;;;1.27;;
17993;SDS011;9122;48.406;9.984;2024-03-25T15:00:39;2.60;;;1.60;;
17993;SDS011;9122;48.406;9.984;2024-03-25T15:03:23;1.40;;;1.20;;
17993;SDS011;9122;48.406;9.984;2024-03-25T15:06:08;1.93;;;1.40;;
17993;SDS011;9122;48.406;9.984;2024-03-25T15:08:52;1.93;;;1.17;;
17993;SDS011;9122;48.406;9.984;2024-03-25T15:11:37;1.53;;;1.43;;
17993;SDS011;9122;48.406;9.984;2024-03-25T15:14:21;1.40;;;1.30;;
17993;SDS011;9122;48.406;9.984;2024-03-25T15:17:06;1.27;;;1.17;;
17993;SDS011;9122;48.406;9.984;2024-03-25T15:19:50;2.83;;;1.70;;
17993;SDS011;9122;48.406;9.984;2024-03-25T15:22:35;1.33;;;1.33;;
17993;SDS011;9122;48.406;9.984;2024-03-25T15:25:21;2.67;;;1.50;;
17993;SDS011;9122;48.406;9.984;2024-03-25T15:28:06;1.40;;;1.30;;
17993;SDS011;9122;48.406;9.984;2024-03-25T15:30:50;1.80;;;1.23;;
17993;SDS011;9122;48.406;9.984;2024-03-25T15:33:35;1.73;;;1.57;;
17993;SDS011;9122;48.406;9.984;2024-03-25T15:36:19;1.13;;;0.93;;
17993;SDS011;9122;48.406;9.984;2024-03-25T15:39:03;1.10;;;1.10;;
17993;SDS011;9122;48.406;9.984;2024-03-25T15:41:49;1.00;;;0.90;;
17993;SDS011;9122;48.406;9.984;2024-03-25T15:44:34;1.17;;;1.17;;
17993;SDS011;9122;48.406;9.984;2024-03-25T15:47:18;0.90;;;0.90;;
17993;SDS011;9122;48.406;9.984;2024-03-25T15:50:02;1.20;;;1.20;;
17993;SDS011;9122;48.406;9.984;2024-03-25T15:52:47;1.10;;;1.10;;
17993;SDS011;9122;48.406;9.984;2024-03-25T15:55:32;0.90;;;0.90;;
17993;SDS011;9122;48.406;9.984;2024-03-25T15:58:16;1.30;;;1.20;;
17993;SDS011;9122;48.406;9.984;2024-03-25T16:01:00;2.23;;;1.20;;
17993;SDS011;9122;48.406;9.984;2024-03-25T16:03:44;1.10;;;1.10;;
17993;SDS011;9122;48.406;9.984;2024-03-25T16:06:28;1.00;;;0.97;;
17993;SDS011;9122;48.406;9.984;2024-03-25T16:09:12;1.63;;;1.53;;
17993;SDS011;9122;48.406;9.984;2024-03-25T16:11:59;1.03;;;1.03;;
17993;SDS011;9122;48.406;9.984;2024-03-25T16:14:43;1.57;;;1.43;;
17993;SDS011;9122;48.406;9.984;2024-03-25T16:17:28;1.10;;;1.10;;
17993;SDS011;9122;48.406;9.984;2024-03-25T16:20:12;1.93;;;0.90;;
17993;SDS011;9122;48.406;9.984;2024-03-25T16:22:57;1.73;;;1.10;;
17993;SDS011;9122;48.406;9.984;2024-03-25T16:25:41;1.30;;;1.20;;
17993;SDS011;9122;48.406;9.984;2024-03-25T16:28:26;1.03;;;1.03;;
17993;SDS011;9122;48.406;9.984;2024-03-25T16:31:11;1.50;;;1.07;;
17993;SDS011;9122;48.406;9.984;2024-03-25T16:33:55;1.20;;;1.10;;
17993;SDS011;9122;48.406;9.984;2024-03-25T16:36:39;1.33;;;1.10;;
17993;SDS011;9122;48.406;9.984;2024-03-25T16:39:24;1.33;;;1.23;;
17993;SDS011;9122;48.406;9.984;2024-03-25T16:42:08;1.00;;;1.00;;
17993;SDS011;9122;48.406;9.984;2024-03-25T16:44:53;2.80;;;1.50;;
17993;SDS011;9122;48.406;9.984;2024-03-25T16:47:37;1.07;;;1.07;;
17993;SDS011;9122;48.406;9.984;2024-03-25T16:50:21;1.90;;;1.27;;
17993;SDS011;9122;48.406;9.984;2024-03-25T16:53:05;1.60;;;1.50;;